Grandin, Florida
Current Conditions -  °F | °C
As of 3:35 AM on Sunday 23 Nov 2014 (Local Time) from K42J Reporting Station
Overcast Overcast  
Wind Chill: 19°   Ceiling: 100
Heat Index: 19°   Visibility: 2mi
Dew Point: 19°   Wind: 0mph
Humidity: 100%   Direction: NA
Pressure: 30.02"   Gusts: NA
Location:  29.73°N, 81.92°W
Report Text: K42J 230835Z AUTO 00000KT 2SM OVC001 19/19 A3002 RMK AO1 P0019 TSNO
Loading
Personal Weather Stations






























Interactive Weather Map New forecast layout! Learn more

10-Day Weather Forecast

Advertisements
Track Severe Weather on mobile